Terminal Aerodrome Forecast
Issued by NWS

Home | Current Version | Previous Version | Text Only | Print | Product List | Glossary On
Versions: 1 2 3 4 5 6 7 8 9 10 11 12 13 14 15 16 17 18
000
FTUS44 KLZK 042000 AAA
TAFBPK
TAF AMD
KBPK 042008Z 0420/0518 01010G18KT 3SM -SN BR SCT008 OVC015
      TEMPO 0420/0424 1/2SM -SNPL FZFG OVC009
     FM050000 01010G18KT 2SM -SN BR BKN008 OVC015
      TEMPO 0500/0504 1/2SM SN FZFG OVC008
     FM050400 01012KT 2SM -SN BR OVC005
     FM050800 02010KT 2SM -SN BR BKN005 OVC010
     FM051200 02010KT P6SM -SN OVC015=

USA.gov is the U.S. government's official web portal to all federal, state and local government web resources and services.